Time;durP1;ratioP1;P1;durP2;ratioP2;P2;SDS_P1;SDS_P2;PMS_P1;PMS_P2;Temp;Humidity;BMP_temperature;BMP_pressure;BME280_temperature;BME280_humidity;BME280_pressure;Samples;Min_cycle;Max_cycle;Signal;HPM_P1;HPM_P2
2021/04/02 00:00:47;;;;;;;17.35;5.97;;;;;;;9.01;60.74;101778.81;5010622;28;20038;-86
2021/04/02 00:03:21;;;;;;;21.55;7.18;;;;;;;8.96;60.93;101778.13;5026744;28;20030;-85
2021/04/02 00:05:47;;;;;;;15.77;6.30;;;;;;;9.05;60.62;101769.91;5023488;28;20345;-84
2021/04/02 00:08:12;;;;;;;9.35;6.57;;;;;;;9.10;60.33;101770.59;5033416;23;20046;-87
2021/04/02 00:10:51;;;;;;;17.48;7.70;;;;;;;8.95;60.85;101779.03;5013751;28;20460;-87
2021/04/02 00:13:19;;;;;;;22.98;8.27;;;;;;;8.63;62.14;101782.88;5012321;28;20032;-87
2021/04/02 00:15:45;;;;;;;14.80;8.10;;;;;;;8.85;61.52;101769.84;5013643;28;20034;-87
2021/04/02 00:18:11;;;;;;;13.88;7.70;;;;;;;9.10;60.89;101769.72;4997620;28;20096;-87
2021/04/02 00:20:36;;;;;;;17.95;10.05;;;;;;;8.98;61.03;101771.06;4993952;28;20430;-87
2021/04/02 00:23:07;;;;;;;16.02;9.85;;;;;;;8.69;61.76;101770.44;4993905;28;20097;-87
2021/04/02 00:25:36;;;;;;;16.88;9.82;;;;;;;9.19;60.37;101784.22;4993696;28;20484;-87
2021/04/02 00:28:06;;;;;;;16.00;10.05;;;;;;;9.23;60.12;101780.56;4993656;28;20057;-87
2021/04/02 00:30:37;;;;;;;18.40;9.90;;;;;;;8.98;60.87;101771.06;4992551;28;20388;-87
2021/04/02 00:33:03;;;;;;;14.43;10.40;;;;;;;9.09;60.53;101770.63;5009982;28;20133;-87
2021/04/02 00:35:29;;;;;;;20.60;11.10;;;;;;;8.85;61.69;101769.84;5013284;28;20033;-87
2021/04/02 00:37:54;;;;;;;17.17;10.88;;;;;;;9.03;60.94;101774.34;5013078;28;20025;-87
2021/04/02 00:40:23;;;;;;;18.15;10.80;;;;;;;9.27;60.73;101772.50;5013370;28;20288;-87
2021/04/02 00:42:49;;;;;;;22.90;11.55;;;;;;;9.30;59.89;101774.16;5011886;28;20026;-87
2021/04/02 00:45:20;;;;;;;16.15;9.30;;;;;;;9.35;60.60;101772.19;5012064;28;20141;-87
2021/04/02 00:47:50;;;;;;;14.13;8.85;;;;;;;9.00;60.61;101777.09;4995983;28;20065;-87
2021/04/02 00:50:23;;;;;;;14.15;9.75;;;;;;;8.96;61.05;101777.28;5006617;28;20065;-87
2021/04/02 00:52:49;;;;;;;14.20;8.18;;;;;;;9.32;60.19;101777.56;5013033;28;20057;-88
2021/04/02 00:55:15;;;;;;;14.73;9.27;;;;;;;9.29;60.95;101775.91;5012859;28;20061;-87
2021/04/02 00:57:41;;;;;;;14.70;8.55;;;;;;;9.41;60.19;101771.94;5012926;28;20021;-87
2021/04/02 01:00:08;;;;;;;16.58;9.00;;;;;;;8.99;61.53;101778.00;5011159;28;20129;-88
2021/04/02 01:02:34;;;;;;;12.43;7.75;;;;;;;9.34;59.96;101778.38;5012454;28;20022;-87
2021/04/02 01:05:04;;;;;;;11.85;8.05;;;;;;;9.33;60.46;101771.41;4999609;28;20114;-87
2021/04/02 01:07:29;;;;;;;17.85;7.70;;;;;;;9.00;60.99;101766.59;5007584;28;20021;-87
2021/04/02 01:09:54;;;;;;;11.63;7.13;;;;;;;9.28;60.15;101776.84;5011720;28;20041;-87
2021/04/02 01:12:20;;;;;;;14.38;7.68;;;;;;;9.37;59.04;101772.16;5012529;28;20026;-87
2021/04/02 01:14:45;;;;;;;14.80;8.05;;;;;;;9.45;59.58;101780.53;5012559;28;20503;-87
2021/04/02 01:17:11;;;;;;;12.18;7.03;;;;;;;9.40;58.99;101770.25;5012665;28;20393;-87
2021/04/02 01:19:42;;;;;;;15.10;7.53;;;;;;;9.49;59.82;101782.97;5008923;28;20037;-87
2021/04/02 01:22:25;;;;;;;11.63;6.53;;;;;;;9.62;58.95;101783.31;5012438;28;20022;-87
2021/04/02 01:25:11;;;;;;;8.52;4.03;;;;;;;9.43;58.90;101783.22;5012448;28;20096;-87
2021/04/02 01:27:55;;;;;;;9.10;3.13;;;;;;;9.01;60.68;101775.34;5012298;28;20033;-87
2021/04/02 01:30:22;;;;;;;7.40;3.90;;;;;;;8.99;60.47;101777.16;5011153;28;20029;-87
2021/04/02 01:32:51;;;;;;;13.95;2.92;;;;;;;9.23;60.01;101781.41;5011040;28;20391;-87
2021/04/02 01:35:31;;;;;;;6.85;3.33;;;;;;;9.15;60.06;101787.88;4995024;28;20038;-87
2021/04/02 01:38:01;;;;;;;6.40;3.20;;;;;;;9.13;60.45;101775.69;4992641;28;20026;-87
2021/04/02 01:40:29;;;;;;;7.95;3.60;;;;;;;9.37;59.14;101780.84;4992810;28;20027;-87
2021/04/02 01:42:59;;;;;;;7.78;2.95;;;;;;;9.21;60.30;101783.25;4991593;28;20100;-87
2021/04/02 01:45:26;;;;;;;9.48;3.58;;;;;;;9.28;59.57;101783.84;4992691;28;20057;-87
2021/04/02 01:47:52;;;;;;;17.67;3.40;;;;;;;9.11;60.09;101785.38;4992766;28;20412;-87
2021/04/02 01:50:19;;;;;;;6.07;2.28;;;;;;;8.98;60.58;101778.91;5011236;28;20036;-87
2021/04/02 01:52:46;;;;;;;8.05;2.58;;;;;;;8.98;60.34;101767.59;5010989;28;20025;-87
2021/04/02 01:55:13;;;;;;;10.77;2.20;;;;;;;9.21;60.58;101792.88;5010855;28;20026;-88
2021/04/02 01:57:40;;;;;;;5.82;2.15;;;;;;;8.90;60.64;101783.59;5012028;28;20022;-87
2021/04/02 02:00:21;;;;;;;6.03;1.85;;;;;;;9.07;60.46;101781.19;5011980;28;20026;-87
2021/04/02 02:02:47;;;;;;;5.32;1.67;;;;;;;9.05;60.24;101787.41;5011106;28;20041;-87
2021/04/02 02:05:13;;;;;;;4.03;1.67;;;;;;;9.11;59.67;101792.41;4992281;28;20030;-87
2021/04/02 02:07:43;;;;;;;7.95;1.90;;;;;;;9.27;59.22;101782.16;4992412;28;20038;-87
2021/04/02 02:10:10;;;;;;;9.93;2.03;;;;;;;9.00;59.80;101790.19;5004734;23;20062;-86
2021/04/02 02:12:39;;;;;;;4.95;1.73;;;;;;;9.42;59.21;101785.91;4994007;28;20053;-86
2021/04/02 02:15:09;;;;;;;4.70;2.03;;;;;;;9.43;58.86;101788.47;4996488;28;20077;-86
2021/04/02 02:17:37;;;;;;;6.47;1.35;;;;;;;9.20;59.43;101785.91;4996526;28;20030;-86
2021/04/02 02:20:09;;;;;;;9.68;1.95;;;;;;;9.52;58.20;101788.09;4996156;28;20032;-86
2021/04/02 02:22:35;;;;;;;7.93;1.90;;;;;;;8.92;59.81;101781.78;4996072;28;20113;-86
2021/04/02 02:25:05;;;;;;;5.57;1.50;;;;;;;9.00;60.47;101779.69;4996258;28;20085;-86
2021/04/02 02:27:30;;;;;;;3.97;1.67;;;;;;;9.24;59.19;101792.75;4996366;28;20027;-86
2021/04/02 02:29:56;;;;;;;6.25;1.70;;;;;;;8.98;59.75;101786.78;4996126;28;20041;-86
2021/04/02 02:32:21;;;;;;;6.25;1.60;;;;;;;8.86;60.34;101793.34;4996252;28;20022;-85
2021/04/02 02:34:47;;;;;;;9.00;2.10;;;;;;;8.74;61.10;101789.44;4976383;28;20035;-86
2021/04/02 02:37:13;;;;;;;8.18;1.83;;;;;;;8.71;60.81;101788.72;4977050;28;20029;-86
2021/04/02 02:39:40;;;;;;;6.65;1.95;;;;;;;8.73;61.23;101773.78;4976695;28;20027;-84
2021/04/02 02:42:06;;;;;;;11.35;2.38;;;;;;;8.74;61.22;101788.56;4976720;28;20027;-85
2021/04/02 02:44:31;;;;;;;7.45;1.60;;;;;;;8.84;60.68;101787.31;4975382;28;20027;-85
2021/04/02 02:47:00;;;;;;;7.65;2.00;;;;;;;8.78;61.00;101789.31;4976518;28;20389;-85
2021/04/02 02:49:29;;;;;;;5.80;1.50;;;;;;;8.81;61.07;101789.22;4976197;28;20117;-86
2021/04/02 02:51:57;;;;;;;7.88;1.85;;;;;;;8.73;60.95;101779.03;4976336;28;20031;-86
2021/04/02 02:54:23;;;;;;;7.72;1.98;;;;;;;8.84;60.31;101789.94;4976101;28;20058;-86
2021/04/02 02:56:52;;;;;;;10.68;1.90;;;;;;;8.77;60.28;101782.34;4976151;28;20038;-86
2021/04/02 02:59:20;;;;;;;8.68;2.00;;;;;;;8.73;60.38;101781.66;4976034;28;20058;-86
2021/04/02 03:01:47;;;;;;;6.50;2.00;;;;;;;8.64;60.21;101771.50;4976698;28;20394;-86
2021/04/02 03:04:15;;;;;;;4.50;2.00;;;;;;;8.72;60.40;101778.16;4995451;28;20026;-86
2021/04/02 03:06:42;;;;;;;6.35;2.00;;;;;;;8.88;59.86;101782.81;4995418;28;20037;-86
2021/04/02 03:09:10;;;;;;;3.47;2.08;;;;;;;8.82;60.14;101769.94;4995744;28;20566;-85
2021/04/02 03:11:37;;;;;;;9.45;2.10;;;;;;;8.71;60.80;101775.63;4995353;28;20034;-85
2021/04/02 03:14:02;;;;;;;5.78;2.10;;;;;;;8.91;59.52;101775.69;4995517;28;20068;-85
2021/04/02 03:16:29;;;;;;;7.28;2.30;;;;;;;8.69;60.83;101769.59;4995472;28;20515;-85
2021/04/02 03:18:57;;;;;;;6.55;1.73;;;;;;;8.71;60.58;101768.59;4974245;28;20030;-85
2021/04/02 03:21:23;;;;;;;4.38;1.85;;;;;;;8.63;60.87;101775.91;4975700;28;20023;-86
2021/04/02 03:23:51;;;;;;;5.93;2.20;;;;;;;8.50;61.02;101774.66;4974711;28;20409;-87
2021/04/02 03:26:17;;;;;;;6.10;1.60;;;;;;;8.67;60.32;101781.88;4974331;28;20523;-86
2021/04/02 03:28:44;;;;;;;6.65;1.73;;;;;;;8.79;60.52;101791.00;4974166;28;20027;-86
2021/04/02 03:31:11;;;;;;;8.35;2.80;;;;;;;8.69;60.01;101780.91;4975815;28;20420;-86
2021/04/02 03:33:44;;;;;;;7.30;2.20;;;;;;;8.37;61.30;101779.44;4993852;28;20073;-86
2021/04/02 03:36:12;;;;;;;6.93;1.77;;;;;;;8.57;60.93;101786.63;4994403;28;20027;-86
2021/04/02 03:38:41;;;;;;;9.15;2.13;;;;;;;8.61;60.25;101772.50;4993297;28;20500;-86
2021/04/02 03:41:21;;;;;;;5.75;2.10;;;;;;;8.39;61.67;101782.00;4994774;28;20034;-86
2021/04/02 03:43:48;;;;;;;11.32;2.13;;;;;;;8.50;60.92;101785.97;4994345;28;20022;-86
2021/04/02 03:46:16;;;;;;;8.38;2.38;;;;;;;8.49;61.21;101784.28;4994485;28;20073;-86
2021/04/02 03:48:43;;;;;;;10.43;2.15;;;;;;;8.22;61.99;101785.25;4994073;28;20061;-86
2021/04/02 03:51:11;;;;;;;7.72;2.25;;;;;;;8.59;60.59;101781.28;4994498;28;20100;-85
2021/04/02 03:53:47;;;;;;;7.55;2.17;;;;;;;8.42;61.45;101776.72;4994483;28;20030;-85
2021/04/02 03:56:19;;;;;;;8.30;2.30;;;;;;;8.64;61.54;101788.06;4994389;28;20019;-86
2021/04/02 03:58:46;;;;;;;10.98;2.72;;;;;;;8.50;61.49;101775.50;4994087;28;20037;-85
2021/04/02 04:01:14;;;;;;;4.60;2.08;;;;;;;8.68;60.60;101778.34;4993865;28;20109;-85
2021/04/02 04:03:42;;;;;;;6.53;2.17;;;;;;;8.62;61.08;101783.81;4993585;28;20037;-86
2021/04/02 04:06:13;;;;;;;20.35;3.33;;;;;;;8.38;61.51;101775.94;4994328;28;20452;-85
2021/04/02 04:08:40;;;;;;;9.83;3.27;;;;;;;8.46;61.52;101768.66;5006817;23;20073;-89
2021/04/02 04:11:08;;;;;;;6.25;2.45;;;;;;;8.62;60.95;101768.94;4993274;28;20026;-88
2021/04/02 04:13:36;;;;;;;9.93;3.00;;;;;;;8.61;60.91;101767.25;4994412;28;20026;-89
2021/04/02 04:16:04;;;;;;;8.00;3.05;;;;;;;8.43;61.63;101767.94;4996136;28;20105;-89
2021/04/02 04:18:32;;;;;;;9.60;3.40;;;;;;;8.47;60.96;101772.13;5014095;28;20080;-88
2021/04/02 04:20:59;;;;;;;12.57;3.42;;;;;;;8.56;60.42;101779.66;5017395;28;20108;-88
2021/04/02 04:23:26;;;;;;;8.25;3.70;;;;;;;8.49;61.39;101772.94;5018221;28;20044;-89
2021/04/02 04:25:56;;;;;;;8.30;3.40;;;;;;;8.58;60.69;101779.59;5016107;28;20030;-89
2021/04/02 04:28:23;;;;;;;9.40;4.57;;;;;;;8.65;60.99;101781.06;5012194;28;20507;-89
2021/04/02 04:30:51;;;;;;;7.10;3.13;;;;;;;8.79;60.55;101780.53;5011334;28;20022;-89
2021/04/02 04:33:18;;;;;;;8.25;3.75;;;;;;;8.73;60.93;101777.25;4993824;28;20084;-89
2021/04/02 04:35:46;;;;;;;8.73;3.20;;;;;;;8.74;61.42;101778.09;4993738;28;20152;-89
2021/04/02 04:38:12;;;;;;;6.47;3.30;;;;;;;8.83;61.23;101784.78;5012642;28;20033;-89
2021/04/02 04:40:38;;;;;;;8.50;3.83;;;;;;;8.82;60.22;101772.56;5012088;28;20033;-89
2021/04/02 04:43:07;;;;;;;13.90;5.00;;;;;;;8.86;60.96;101784.63;5013479;28;20030;-89
2021/04/02 04:45:33;;;;;;;9.45;4.72;;;;;;;8.99;59.97;101780.63;5012209;28;20030;-89
2021/04/02 04:47:59;;;;;;;7.97;3.67;;;;;;;8.96;60.11;101778.13;5008613;28;20048;-88
2021/04/02 04:50:25;;;;;;;9.90;4.50;;;;;;;8.92;59.91;101781.78;5006705;28;20026;-89
2021/04/02 04:53:00;;;;;;;9.48;4.50;;;;;;;8.97;60.41;101790.31;4993209;28;20026;-89
2021/04/02 04:55:26;;;;;;;8.43;3.95;;;;;;;9.00;59.97;101790.19;5008378;28;20038;-88
2021/04/02 04:57:54;;;;;;;11.60;4.82;;;;;;;9.02;59.60;101790.13;4993657;28;20562;-88
2021/04/02 05:00:22;;;;;;;10.85;3.95;;;;;;;9.17;59.46;101789.53;4993565;28;20041;-89
2021/04/02 05:02:49;;;;;;;11.48;4.32;;;;;;;9.15;59.76;101788.75;4993744;28;20472;-89
2021/04/02 05:05:25;;;;;;;8.40;4.00;;;;;;;9.16;60.00;101794.81;4993376;28;20041;-89
2021/04/02 05:07:55;;;;;;;8.13;3.33;;;;;;;9.17;59.23;101792.16;4993187;28;20041;-88
2021/04/02 05:10:22;;;;;;;8.80;3.90;;;;;;;9.10;58.86;101799.41;4993356;28;20038;-89
2021/04/02 05:12:50;;;;;;;9.77;4.10;;;;;;;9.15;58.48;101801.00;4993351;28;20042;-89
2021/04/02 05:15:16;;;;;;;8.25;4.38;;;;;;;9.04;57.99;101801.41;4993266;28;20535;-89
2021/04/02 05:17:44;;;;;;;9.27;4.70;;;;;;;8.96;57.95;101799.06;4993654;28;20084;-89
2021/04/02 05:20:10;;;;;;;9.88;4.60;;;;;;;8.92;57.72;101808.81;4992252;28;20018;-89
2021/04/02 05:22:36;;;;;;;9.95;4.47;;;;;;;8.76;58.48;101804.25;4992907;28;20034;-89
2021/04/02 05:25:02;;;;;;;9.00;3.97;;;;;;;8.96;57.35;101804.31;4993302;28;20221;-88
2021/04/02 05:27:28;;;;;;;12.52;4.03;;;;;;;8.86;57.67;101802.97;4991726;28;20487;-89
2021/04/02 05:29:53;;;;;;;7.95;3.78;;;;;;;8.99;57.57;101806.81;4993027;28;20037;-89
2021/04/02 05:32:19;;;;;;;7.00;3.97;;;;;;;9.01;56.58;101805.00;4991726;28;20023;-89
2021/04/02 05:34:44;;;;;;;9.15;3.90;;;;;;;8.92;57.06;101802.72;4992994;28;20037;-89
2021/04/02 05:37:09;;;;;;;12.30;4.10;;;;;;;8.98;56.49;101812.13;4992872;28;20073;-89
2021/04/02 05:39:35;;;;;;;10.65;3.85;;;;;;;8.88;56.63;101794.13;4992918;28;20026;-89
2021/04/02 05:42:06;;;;;;;8.15;3.28;;;;;;;8.87;56.86;101807.31;4992981;28;20072;-89
2021/04/02 05:44:36;;;;;;;9.30;3.90;;;;;;;8.89;55.82;101814.19;4991908;28;20530;-89
2021/04/02 05:47:04;;;;;;;8.18;3.65;;;;;;;8.97;56.46;101815.66;4990980;28;20291;-89
2021/04/02 05:49:30;;;;;;;7.88;3.22;;;;;;;8.91;57.01;101811.50;4992905;28;20026;-89
2021/04/02 05:51:57;;;;;;;11.50;3.80;;;;;;;8.61;57.00;101808.28;4992477;28;20039;-89
2021/04/02 05:54:40;;;;;;;6.97;3.95;;;;;;;8.88;56.38;101822.09;4992639;28;20038;-89
2021/04/02 05:57:07;;;;;;;12.05;5.30;;;;;;;8.84;56.26;101817.88;4992937;28;20477;-89
2021/04/02 05:59:33;;;;;;;8.80;4.97;;;;;;;9.05;55.84;101822.31;4992942;28;20150;-88
2021/04/02 06:01:59;;;;;;;11.00;4.95;;;;;;;8.99;55.82;101827.78;4992732;28;20505;-89
2021/04/02 06:04:24;;;;;;;15.65;5.25;;;;;;;9.17;55.16;101823.59;4991430;28;20073;-89
2021/04/02 06:06:50;;;;;;;7.47;4.10;;;;;;;9.33;55.58;101829.94;4992485;28;20050;-89
2021/04/02 06:09:15;;;;;;;12.90;4.13;;;;;;;9.30;55.09;101840.56;4993274;28;20045;-89
2021/04/02 06:11:41;;;;;;;12.90;4.30;;;;;;;9.22;55.61;101850.50;4992701;28;20037;-89
2021/04/02 06:14:09;;;;;;;10.07;4.03;;;;;;;9.21;55.82;101825.19;4991265;28;20031;-89
2021/04/02 06:16:35;;;;;;;9.38;4.25;;;;;;;9.19;55.52;101836.66;4993186;28;20026;-89
2021/04/02 06:19:09;;;;;;;8.38;3.78;;;;;;;9.40;54.90;101851.53;4992457;28;20019;-90
2021/04/02 06:21:45;;;;;;;7.90;3.15;;;;;;;9.56;55.32;101849.13;4991768;28;20425;-89
2021/04/02 06:24:12;;;;;;;9.23;4.03;;;;;;;9.87;53.38;101851.34;4995401;28;20037;-89
2021/04/02 06:26:38;;;;;;;10.10;3.92;;;;;;;9.96;52.87;101851.88;4992559;28;20061;-89
2021/04/02 06:29:03;;;;;;;8.18;3.72;;;;;;;9.94;53.81;101851.94;4991558;28;20057;-89
2021/04/02 06:31:32;;;;;;;7.25;3.35;;;;;;;9.85;53.74;101845.31;4990691;28;20101;-89
2021/04/02 06:34:05;;;;;;;9.73;4.25;;;;;;;9.24;54.59;101858.25;4992453;28;20436;-89
2021/04/02 06:36:31;;;;;;;10.85;4.18;;;;;;;9.63;54.00;101865.47;4992123;28;20030;-89
2021/04/02 06:39:03;;;;;;;9.70;3.92;;;;;;;9.71;53.83;101869.47;4992526;28;20110;-89
2021/04/02 06:41:29;;;;;;;9.43;4.00;;;;;;;9.75;53.98;101866.72;4992570;28;20026;-89
2021/04/02 06:43:57;;;;;;;10.85;4.70;;;;;;;9.65;54.02;101872.34;5007576;28;20035;-89
2021/04/02 06:46:25;;;;;;;9.20;3.60;;;;;;;9.71;54.34;101876.50;4991786;28;20030;-89
2021/04/02 06:48:55;;;;;;;8.23;3.13;;;;;;;9.55;53.56;101876.25;4992415;28;20034;-88
2021/04/02 06:51:22;;;;;;;6.75;3.05;;;;;;;9.68;53.38;101884.50;4990436;28;20512;-88
2021/04/02 06:53:54;;;;;;;9.75;3.47;;;;;;;9.77;53.62;101889.34;4995522;28;20062;-90
2021/04/02 06:56:21;;;;;;;11.38;3.80;;;;;;;9.66;53.41;101878.47;4980963;28;20057;-89
2021/04/02 06:58:49;;;;;;;7.22;3.65;;;;;;;9.79;52.98;101890.13;4990837;28;20026;-89
2021/04/02 07:01:15;;;;;;;10.00;3.80;;;;;;;9.70;53.43;101901.03;4995330;28;20086;-88
2021/04/02 07:03:43;;;;;;;8.55;4.30;;;;;;;10.00;52.42;101901.53;4995221;28;20042;-89
2021/04/02 07:06:10;;;;;;;9.00;3.00;;;;;;;9.80;52.49;101906.75;4995874;28;20076;-89
2021/04/02 07:08:38;;;;;;;8.95;4.32;;;;;;;9.75;52.68;101912.16;4994689;28;20109;-89
2021/04/02 07:11:05;;;;;;;10.50;4.00;;;;;;;9.74;52.05;101920.97;4994554;28;20034;-89
2021/04/02 07:13:36;;;;;;;6.80;3.20;;;;;;;9.55;52.37;101922.63;4995317;28;20048;-89
2021/04/02 07:16:02;;;;;;;10.15;3.53;;;;;;;9.29;52.87;101921.84;4994746;28;20031;-89
2021/04/02 07:18:28;;;;;;;9.52;3.28;;;;;;;10.02;51.33;101922.47;4994189;28;20500;-90
2021/04/02 07:20:56;;;;;;;6.43;3.47;;;;;;;9.77;52.67;101926.06;4994678;28;20034;-90
2021/04/02 07:23:21;;;;;;;10.10;3.65;;;;;;;9.78;51.68;101926.94;4995980;28;20105;-89
2021/04/02 07:25:48;;;;;;;14.45;4.28;;;;;;;9.87;52.23;101930.06;4989697;28;20049;-89
2021/04/02 07:28:14;;;;;;;6.68;3.58;;;;;;;9.87;51.78;101919.56;4994101;28;20022;-89
2021/04/02 07:30:40;;;;;;;7.15;3.47;;;;;;;10.07;51.21;101930.97;4994206;28;20034;-89
2021/04/02 07:33:10;;;;;;;6.22;3.45;;;;;;;9.86;51.98;101923.09;4994943;28;20026;-87
2021/04/02 07:35:40;;;;;;;8.30;3.40;;;;;;;9.91;52.54;101936.88;5000305;28;20033;-88
2021/04/02 07:38:15;;;;;;;9.00;3.60;;;;;;;10.00;51.84;101940.88;4991969;28;20065;-89
2021/04/02 07:40:41;;;;;;;13.18;3.40;;;;;;;9.74;52.48;101944.56;5005523;28;20034;-88
2021/04/02 07:43:09;;;;;;;9.10;5.22;;;;;;;10.07;52.58;101939.72;5013324;28;20388;-88
2021/04/02 07:45:37;;;;;;;11.20;3.85;;;;;;;10.01;50.86;101950.50;5015479;28;20033;-89
2021/04/02 07:48:21;;;;;;;11.73;4.05;;;;;;;9.90;52.09;101923.81;5002056;28;20114;-89
2021/04/02 07:50:51;;;;;;;8.98;3.47;;;;;;;10.01;52.24;101942.63;4993503;28;20037;-89
2021/04/02 07:53:39;;;;;;;7.45;3.53;;;;;;;10.26;51.11;101939.81;4994020;28;20034;-90
2021/04/02 07:56:16;;;;;;;7.80;4.30;;;;;;;10.48;50.92;101925.78;4996479;28;20031;-90
2021/04/02 07:58:53;;;;;;;12.15;3.97;;;;;;;10.80;50.41;101947.16;4996450;28;20023;-90
2021/04/02 08:01:20;;;;;;;8.35;3.33;;;;;;;10.81;49.35;101939.22;4986266;28;20033;-89
2021/04/02 08:03:47;;;;;;;13.40;3.97;;;;;;;10.64;49.35;101952.25;4993090;28;20381;-89
2021/04/02 08:06:33;;;;;;;7.75;3.63;;;;;;;10.64;49.07;101963.63;4994368;28;20105;-89
2021/04/02 08:09:00;;;;;;;6.70;3.58;;;;;;;10.59;49.19;101957.72;4993754;28;20034;-89
2021/04/02 08:11:26;;;;;;;9.73;4.40;;;;;;;10.45;49.18;101958.31;4993549;28;20499;-89
2021/04/02 08:14:13;;;;;;;13.77;3.42;;;;;;;10.47;49.58;101969.59;4992751;28;20026;-89
2021/04/02 08:16:52;;;;;;;10.07;3.97;;;;;;;10.81;48.78;101954.16;4990088;28;20023;-89
2021/04/02 08:19:29;;;;;;;9.20;3.60;;;;;;;10.83;48.77;101963.66;4984850;28;20026;-90
2021/04/02 08:21:56;;;;;;;6.32;3.75;;;;;;;10.61;50.06;101969.00;4992533;28;20049;-90
2021/04/02 08:24:25;;;;;;;10.63;3.65;;;;;;;10.96;48.96;101957.84;4992547;28;20030;-89
2021/04/02 08:26:52;;;;;;;13.00;3.97;;;;;;;10.87;48.75;101959.97;4991525;28;20015;-89
2021/04/02 08:29:19;;;;;;;10.63;3.40;;;;;;;10.86;48.35;101958.28;4992432;28;20030;-91
2021/04/02 08:32:01;;;;;;;10.50;4.13;;;;;;;10.71;49.33;101966.81;4993539;28;20014;-88
2021/04/02 08:34:29;;;;;;;7.70;3.15;;;;;;;11.28;48.46;101964.28;4995745;28;20030;-89
2021/04/02 08:36:58;;;;;;;5.38;3.13;;;;;;;11.32;48.21;101960.59;4994613;28;20030;-90
2021/04/02 08:39:25;;;;;;;11.93;3.38;;;;;;;11.52;47.75;101957.03;4994058;28;20026;-89
2021/04/02 08:42:02;;;;;;;10.40;3.70;;;;;;;11.84;47.34;101968.63;4994474;28;20045;-89
2021/04/02 08:44:29;;;;;;;8.93;3.60;;;;;;;11.79;46.87;101969.78;4994125;28;20030;-90
2021/04/02 08:47:01;;;;;;;11.18;3.63;;;;;;;11.89;46.59;101966.69;4992316;28;20023;-90
2021/04/02 08:49:34;;;;;;;7.00;2.90;;;;;;;11.92;45.75;101968.31;4993064;28;20022;-89
2021/04/02 08:51:59;;;;;;;10.95;4.00;;;;;;;11.69;46.34;101978.13;4993955;28;20124;-90
2021/04/02 08:54:25;;;;;;;8.10;3.28;;;;;;;11.54;46.17;101972.75;5008520;28;20407;-88
2021/04/02 08:56:50;;;;;;;9.00;2.63;;;;;;;12.01;45.98;101957.34;4992928;28;20033;-90
2021/04/02 08:59:17;;;;;;;10.15;2.80;;;;;;;12.62;43.96;101971.00;4993510;28;20439;-90
2021/04/02 09:01:44;;;;;;;9.63;3.42;;;;;;;13.24;42.55;101974.69;4993585;28;20026;-89
2021/04/02 09:04:11;;;;;;;5.93;2.58;;;;;;;13.70;41.63;101976.63;4992136;28;20026;-89
2021/04/02 09:06:37;;;;;;;5.90;2.67;;;;;;;13.51;42.43;101978.56;5008677;28;20084;-90
2021/04/02 09:09:12;;;;;;;6.60;2.63;;;;;;;13.35;41.65;101960.97;4992768;28;20057;-90
2021/04/02 09:11:37;;;;;;;6.40;2.90;;;;;;;14.34;40.71;101961.50;4992502;28;20499;-90
2021/04/02 09:14:08;;;;;;;9.48;2.58;;;;;;;14.96;38.82;101969.25;4992383;28;20030;-89
2021/04/02 09:16:36;;;;;;;8.75;2.72;;;;;;;15.04;38.89;101968.78;4993664;28;20026;-90
2021/04/02 09:19:02;;;;;;;9.85;2.80;;;;;;;14.98;38.76;101963.88;4991412;28;20038;-90
2021/04/02 09:21:28;;;;;;;7.88;2.95;;;;;;;14.87;38.77;101970.69;4989765;28;20026;-89
2021/04/02 09:23:54;;;;;;;9.50;3.10;;;;;;;14.97;39.91;101975.38;4990018;28;20026;-90
2021/04/02 09:26:20;;;;;;;8.02;3.95;;;;;;;13.84;39.94;101979.34;4986848;28;20035;-90
2021/04/02 09:28:47;;;;;;;10.65;3.15;;;;;;;13.89;41.29;101974.66;4988443;28;20026;-90
2021/04/02 09:31:27;;;;;;;10.80;4.28;;;;;;;14.11;40.45;101976.06;4991642;28;20026;-89
2021/04/02 09:33:58;;;;;;;12.45;4.10;;;;;;;13.42;42.12;101978.16;4993507;28;20026;-90
2021/04/02 09:36:26;;;;;;;10.50;4.20;;;;;;;14.10;40.93;101984.94;4991744;28;20030;-90
2021/04/02 09:39:07;;;;;;;12.05;4.28;;;;;;;14.36;40.06;101979.94;4995084;28;20025;-91
2021/04/02 09:41:33;;;;;;;7.45;3.92;;;;;;;14.06;39.91;101983.41;4983435;28;20297;-90
2021/04/02 09:44:06;;;;;;;14.32;4.32;;;;;;;15.31;39.00;101970.66;4985868;28;20113;-90
2021/04/02 09:46:34;;;;;;;9.15;3.20;;;;;;;17.18;35.09;101973.22;4992668;28;20469;-89
2021/04/02 09:49:13;;;;;;;7.65;4.07;;;;;;;17.45;34.20;101984.53;4995391;28;20053;-89
2021/04/02 09:51:41;;;;;;;6.20;4.20;;;;;;;18.31;32.74;101985.34;4992568;28;20031;-89
2021/04/02 09:54:07;;;;;;;12.30;3.70;;;;;;;19.42;30.59;101974.94;4992747;28;20027;-89
2021/04/02 09:56:33;;;;;;;9.15;4.07;;;;;;;19.10;30.59;101988.16;4992031;28;20104;-89
2021/04/02 09:58:59;;;;;;;11.30;4.18;;;;;;;19.17;31.17;101978.72;4997821;28;20058;-88
2021/04/02 10:01:25;;;;;;;8.00;4.07;;;;;;;19.43;30.83;101986.41;4990957;28;20023;-89
2021/04/02 10:03:51;;;;;;;8.00;3.65;;;;;;;18.90;30.42;101981.75;4991018;28;20042;-90
2021/04/02 10:06:17;;;;;;;7.00;3.60;;;;;;;18.11;32.21;101997.50;4990627;28;20548;-90
2021/04/02 10:08:43;;;;;;;9.40;3.25;;;;;;;19.95;29.82;101986.69;5006720;23;20084;-83
2021/04/02 10:11:08;;;;;;;4.30;2.40;;;;;;;20.08;29.13;101984.69;5007699;28;20037;-83
2021/04/02 10:13:34;;;;;;;7.38;3.35;;;;;;;19.37;29.82;101982.47;5022444;28;20030;-84
2021/04/02 10:15:59;;;;;;;8.77;3.22;;;;;;;19.25;30.58;101986.09;5015550;28;20030;-83
2021/04/02 10:18:27;;;;;;;3.38;2.03;;;;;;;20.54;28.77;101974.66;5015124;28;20027;-83
2021/04/02 10:20:52;;;;;;;10.40;2.85;;;;;;;21.70;27.85;101979.63;4984567;28;20110;-83
2021/04/02 10:23:18;;;;;;;5.85;2.30;;;;;;;22.04;27.03;101981.91;4980299;28;20097;-84
2021/04/02 10:25:43;;;;;;;7.28;2.22;;;;;;;21.71;27.14;101978.63;4980526;28;20473;-83
2021/04/02 10:28:09;;;;;;;5.35;2.20;;;;;;;22.46;25.70;101983.44;4979276;28;20070;-83
2021/04/02 10:30:34;;;;;;;3.15;1.70;;;;;;;22.62;25.78;101982.84;4983879;28;20035;-84
2021/04/02 10:32:59;;;;;;;5.28;2.10;;;;;;;23.21;25.58;101973.59;4979636;28;20031;-84
2021/04/02 10:35:27;;;;;;;6.40;1.95;;;;;;;22.34;26.09;101972.88;4982729;28;20034;-84
2021/04/02 10:37:53;;;;;;;4.65;2.00;;;;;;;22.06;26.38;101976.38;5000761;28;20117;-84
2021/04/02 10:40:19;;;;;;;6.45;1.95;;;;;;;23.17;25.69;101966.88;4988174;28;20090;-83
2021/04/02 10:42:44;;;;;;;7.32;1.95;;;;;;;23.80;24.73;101967.91;4993992;28;20015;-83
2021/04/02 10:45:10;;;;;;;5.90;1.90;;;;;;;24.38;23.89;101967.38;4984395;28;20062;-83
2021/04/02 10:47:35;;;;;;;6.72;1.98;;;;;;;23.02;25.35;101973.66;4977616;28;20031;-85
2021/04/02 10:50:01;;;;;;;6.15;1.85;;;;;;;22.50;26.52;101977.63;4976340;28;20038;-84
2021/04/02 10:52:26;;;;;;;5.07;1.70;;;;;;;21.36;28.15;101963.06;4974910;28;20038;-85
2021/04/02 10:54:51;;;;;;;9.02;1.67;;;;;;;20.52;29.68;101976.59;4976212;28;20034;-84
2021/04/02 10:57:17;;;;;;;8.98;1.90;;;;;;;20.37;28.74;101968.91;4989047;28;20031;-84
2021/04/02 10:59:42;;;;;;;5.70;1.90;;;;;;;20.00;29.31;101976.47;4995551;28;20034;-84
2021/04/02 11:02:10;;;;;;;4.18;2.20;;;;;;;21.10;28.28;101982.25;4995353;28;20101;-84
2021/04/02 11:04:35;;;;;;;6.25;2.40;;;;;;;21.35;27.83;101980.09;4981576;28;20023;-85
2021/04/02 11:07:01;;;;;;;5.85;1.77;;;;;;;20.11;29.47;101971.09;4975585;28;20524;-84
2021/04/02 11:09:26;;;;;;;7.82;2.13;;;;;;;19.18;30.27;101976.91;5003044;23;20058;-90
2021/04/02 11:11:51;;;;;;;7.35;2.08;;;;;;;18.61;30.65;101987.47;5014936;28;20022;-91
2021/04/02 11:14:17;;;;;;;7.35;2.08;;;;;;;18.92;30.86;101986.97;5014643;28;20502;-91
2021/04/02 11:16:42;;;;;;;6.85;1.95;;;;;;;18.24;31.68;101982.28;5015271;28;20025;-91
2021/04/02 11:19:08;;;;;;;7.10;1.60;;;;;;;19.77;29.92;101967.75;5014797;28;20026;-90
2021/04/02 11:21:33;;;;;;;5.97;1.52;;;;;;;19.50;29.22;101976.97;5015286;28;20484;-90
2021/04/02 11:23:58;;;;;;;5.53;1.77;;;;;;;19.14;30.30;101959.50;5015647;28;20025;-91
2021/04/02 11:26:24;;;;;;;5.25;1.98;;;;;;;18.28;32.30;101968.78;5015209;28;20026;-91
2021/04/02 11:28:50;;;;;;;7.13;1.92;;;;;;;18.63;31.50;101956.28;5013692;28;20111;-90
2021/04/02 11:31:16;;;;;;;8.40;1.92;;;;;;;18.21;32.99;101968.41;5017107;28;20032;-90